sensor_id;sensor_type;location;lat;lon;timestamp;pressure;altitude;pressure_sealevel;temperature;humidity
37792;BME280;29527;55.766;37.570;2023-05-02T00:00:10;100319.44;;;3.57;65.18
37792;BME280;29527;55.766;37.570;2023-05-02T00:02:35;100321.38;;;3.54;65.26
37792;BME280;29527;55.766;37.570;2023-05-02T00:05:01;100323.16;;;3.53;64.81
37792;BME280;29527;55.766;37.570;2023-05-02T00:07:29;100329.53;;;3.49;65.18
37792;BME280;29527;55.766;37.570;2023-05-02T00:09:55;100336.72;;;3.45;65.52
37792;BME280;29527;55.766;37.570;2023-05-02T00:12:20;100326.34;;;3.41;65.71
37792;BME280;29527;55.766;37.570;2023-05-02T00:14:47;100328.25;;;3.37;65.69
37792;BME280;29527;55.766;37.570;2023-05-02T00:17:16;100328.44;;;3.33;66.24
37792;BME280;29527;55.766;37.570;2023-05-02T00:19:43;100340.03;;;3.30;66.57
37792;BME280;29527;55.766;37.570;2023-05-02T00:22:08;100340.88;;;3.30;66.47
37792;BME280;29527;55.766;37.570;2023-05-02T00:24:34;100353.31;;;3.28;66.39
37792;BME280;29527;55.766;37.570;2023-05-02T00:26:59;100357.81;;;3.26;66.58
37792;BME280;29527;55.766;37.570;2023-05-02T00:29:25;100357.97;;;3.23;66.63
37792;BME280;29527;55.766;37.570;2023-05-02T00:31:50;100346.84;;;3.15;66.96
37792;BME280;29527;55.766;37.570;2023-05-02T00:34:16;100357.28;;;3.18;66.81
37792;BME280;29527;55.766;37.570;2023-05-02T00:36:41;100358.25;;;3.15;66.71
37792;BME280;29527;55.766;37.570;2023-05-02T00:39:07;100360.13;;;3.13;67.42
37792;BME280;29527;55.766;37.570;2023-05-02T00:41:33;100370.75;;;3.12;67.58
37792;BME280;29527;55.766;37.570;2023-05-02T00:43:59;100362.22;;;3.05;67.47
37792;BME280;29527;55.766;37.570;2023-05-02T00:46:25;100375.47;;;3.05;67.32
37792;BME280;29527;55.766;37.570;2023-05-02T00:48:51;100372.25;;;2.97;68.09
37792;BME280;29527;55.766;37.570;2023-05-02T00:51:16;100379.31;;;2.96;67.93
37792;BME280;29527;55.766;37.570;2023-05-02T00:53:42;100381.31;;;2.91;67.78
37792;BME280;29527;55.766;37.570;2023-05-02T00:56:08;100391.88;;;2.91;68.33
37792;BME280;29527;55.766;37.570;2023-05-02T00:58:34;100385.75;;;2.89;68.62
37792;BME280;29527;55.766;37.570;2023-05-02T01:06:46;100398.16;;;2.89;68.49
37792;BME280;29527;55.766;37.570;2023-05-02T01:09:48;100404.28;;;2.89;68.33
37792;BME280;29527;55.766;37.570;2023-05-02T01:12:26;100400.84;;;2.87;68.18
37792;BME280;29527;55.766;37.570;2023-05-02T01:14:54;100406.19;;;2.85;68.28
37792;BME280;29527;55.766;37.570;2023-05-02T01:17:29;100407.97;;;2.85;68.43
37792;BME280;29527;55.766;37.570;2023-05-02T01:20:03;100409.78;;;2.84;68.27
37792;BME280;29527;55.766;37.570;2023-05-02T01:22:31;100415.22;;;2.80;68.90
37792;BME280;29527;55.766;37.570;2023-05-02T01:30:11;100396.75;;;2.56;68.22
37792;BME280;29527;55.766;37.570;2023-05-02T01:32:39;100421.00;;;2.67;68.74
37792;BME280;29527;55.766;37.570;2023-05-02T01:35:06;100417.59;;;2.64;68.77
37792;BME280;29527;55.766;37.570;2023-05-02T01:37:33;100425.59;;;2.62;69.01
37792;BME280;29527;55.766;37.570;2023-05-02T01:40:01;100424.78;;;2.60;69.30
37792;BME280;29527;55.766;37.570;2023-05-02T01:42:31;100436.00;;;2.67;69.42
37792;BME280;29527;55.766;37.570;2023-05-02T01:44:58;100438.72;;;2.65;69.05
37792;BME280;29527;55.766;37.570;2023-05-02T01:47:31;100445.59;;;2.69;68.88
37792;BME280;29527;55.766;37.570;2023-05-02T01:49:58;100433.47;;;2.64;69.07
37792;BME280;29527;55.766;37.570;2023-05-02T01:52:26;100440.53;;;2.63;69.00
37792;BME280;29527;55.766;37.570;2023-05-02T01:54:52;100454.47;;;2.68;69.00
37792;BME280;29527;55.766;37.570;2023-05-02T01:57:20;100419.91;;;2.49;68.83
37792;BME280;29527;55.766;37.570;2023-05-02T01:59:46;100452.63;;;2.70;69.76
37792;BME280;29527;55.766;37.570;2023-05-02T02:02:14;100465.72;;;2.73;69.27
37792;BME280;29527;55.766;37.570;2023-05-02T02:04:41;100455.19;;;2.72;69.26
37792;BME280;29527;55.766;37.570;2023-05-02T02:07:09;100464.69;;;2.78;69.02
37792;BME280;29527;55.766;37.570;2023-05-02T02:09:37;100464.69;;;2.78;69.21
37792;BME280;29527;55.766;37.570;2023-05-02T02:12:07;100464.63;;;2.79;68.56
37792;BME280;29527;55.766;37.570;2023-05-02T02:14:37;100468.06;;;2.81;69.04
37792;BME280;29527;55.766;37.570;2023-05-02T02:17:11;100486.28;;;2.89;68.97
37792;BME280;29527;55.766;37.570;2023-05-02T02:19:38;100483.59;;;2.91;68.20
37792;BME280;29527;55.766;37.570;2023-05-02T02:22:06;100479.16;;;2.91;68.24
37792;BME280;29527;55.766;37.570;2023-05-02T02:24:35;100493.00;;;2.98;68.23
37792;BME280;29527;55.766;37.570;2023-05-02T02:27:01;100492.88;;;3.01;68.22
37792;BME280;29527;55.766;37.570;2023-05-02T02:29:27;100467.59;;;2.94;68.16
37792;BME280;29527;55.766;37.570;2023-05-02T02:31:52;100499.44;;;3.14;67.88
37792;BME280;29527;55.766;37.570;2023-05-02T02:34:18;100508.13;;;3.18;67.13
37792;BME280;29527;55.766;37.570;2023-05-02T02:36:53;100507.75;;;3.27;67.28
37792;BME280;29527;55.766;37.570;2023-05-02T02:44:41;100508.56;;;3.52;66.69
37792;BME280;29527;55.766;37.570;2023-05-02T02:47:19;100518.03;;;3.57;66.35
37792;BME280;29527;55.766;37.570;2023-05-02T02:49:49;100525.69;;;3.65;66.42
37792;BME280;29527;55.766;37.570;2023-05-02T02:52:36;100520.75;;;3.78;65.94
37792;BME280;29527;55.766;37.570;2023-05-02T02:55:11;100514.38;;;3.82;65.43
37792;BME280;29527;55.766;37.570;2023-05-02T02:57:52;100524.63;;;3.92;65.31
37792;BME280;29527;55.766;37.570;2023-05-02T03:00:21;100521.75;;;3.96;65.48
37792;BME280;29527;55.766;37.570;2023-05-02T03:02:49;100525.16;;;4.00;64.82
37792;BME280;29527;55.766;37.570;2023-05-02T03:05:18;100517.72;;;4.08;64.79
37792;BME280;29527;55.766;37.570;2023-05-02T03:07:45;100525.22;;;4.19;64.34
37792;BME280;29527;55.766;37.570;2023-05-02T03:10:10;100515.09;;;4.29;63.64
37792;BME280;29527;55.766;37.570;2023-05-02T03:12:36;100514.84;;;4.35;63.27
37792;BME280;29527;55.766;37.570;2023-05-02T03:17:48;100521.44;;;4.66;62.81
37792;BME280;29527;55.766;37.570;2023-05-02T03:20:14;100528.03;;;4.77;62.22
37792;BME280;29527;55.766;37.570;2023-05-02T03:22:39;100526.69;;;4.87;61.92
37792;BME280;29527;55.766;37.570;2023-05-02T03:25:05;100536.09;;;4.94;61.94
37792;BME280;29527;55.766;37.570;2023-05-02T03:27:32;100535.59;;;5.05;61.27
37792;BME280;29527;55.766;37.570;2023-05-02T03:29:57;100549.94;;;5.20;61.00
37792;BME280;29527;55.766;37.570;2023-05-02T03:32:23;100540.63;;;5.30;60.24
37792;BME280;29527;55.766;37.570;2023-05-02T03:34:48;100547.94;;;5.44;60.41
37792;BME280;29527;55.766;37.570;2023-05-02T03:37:14;100551.41;;;5.64;59.59
37792;BME280;29527;55.766;37.570;2023-05-02T03:39:39;100555.41;;;5.92;58.62
37792;BME280;29527;55.766;37.570;2023-05-02T03:42:05;100544.38;;;6.70;57.39
37792;BME280;29527;55.766;37.570;2023-05-02T03:44:30;100553.81;;;8.37;53.63
37792;BME280;29527;55.766;37.570;2023-05-02T03:46:56;100536.09;;;10.19;48.33
37792;BME280;29527;55.766;37.570;2023-05-02T03:49:21;100555.78;;;12.10;43.59
37792;BME280;29527;55.766;37.570;2023-05-02T03:51:47;100546.25;;;13.67;39.46
37792;BME280;29527;55.766;37.570;2023-05-02T03:54:13;100523.38;;;14.90;36.35
37792;BME280;29527;55.766;37.570;2023-05-02T03:56:38;100553.22;;;16.29;33.65
37792;BME280;29527;55.766;37.570;2023-05-02T03:59:03;100555.66;;;17.38;31.56
37792;BME280;29527;55.766;37.570;2023-05-02T04:01:30;100525.22;;;17.90;30.21
37792;BME280;29527;55.766;37.570;2023-05-02T04:03:56;100555.25;;;18.77;29.02
37792;BME280;29527;55.766;37.570;2023-05-02T04:06:21;100551.28;;;19.76;27.64
37792;BME280;29527;55.766;37.570;2023-05-02T04:08:47;100552.88;;;20.61;25.70
37792;BME280;29527;55.766;37.570;2023-05-02T04:11:13;100555.28;;;21.29;24.99
37792;BME280;29527;55.766;37.570;2023-05-02T04:13:39;100563.38;;;22.32;23.44
37792;BME280;29527;55.766;37.570;2023-05-02T04:16:05;100557.22;;;23.07;22.17
37792;BME280;29527;55.766;37.570;2023-05-02T04:18:30;100567.22;;;23.45;22.02
37792;BME280;29527;55.766;37.570;2023-05-02T04:20:56;100562.16;;;24.00;20.90
37792;BME280;29527;55.766;37.570;2023-05-02T04:23:21;100569.09;;;24.68;20.19
37792;BME280;29527;55.766;37.570;2023-05-02T04:25:54;100573.28;;;25.28;19.43
37792;BME280;29527;55.766;37.570;2023-05-02T04:28:21;100544.78;;;25.57;19.46
37792;BME280;29527;55.766;37.570;2023-05-02T04:30:48;100572.59;;;26.23;18.68
37792;BME280;29527;55.766;37.570;2023-05-02T04:33:13;100561.38;;;26.65;17.99
37792;BME280;29527;55.766;37.570;2023-05-02T04:35:40;100577.97;;;27.24;17.50
37792;BME280;29527;55.766;37.570;2023-05-02T04:38:06;100578.44;;;27.80;16.85
37792;BME280;29527;55.766;37.570;2023-05-02T04:40:33;100581.88;;;28.40;16.55
37792;BME280;29527;55.766;37.570;2023-05-02T04:42:58;100578.09;;;28.85;15.86
37792;BME280;29527;55.766;37.570;2023-05-02T04:45:24;100587.78;;;29.31;15.23
37792;BME280;29527;55.766;37.570;2023-05-02T04:47:50;100582.41;;;29.74;14.81
37792;BME280;29527;55.766;37.570;2023-05-02T04:50:16;100580.56;;;30.29;14.12
37792;BME280;29527;55.766;37.570;2023-05-02T04:52:41;100574.75;;;30.73;14.27
37792;BME280;29527;55.766;37.570;2023-05-02T04:55:07;100588.53;;;31.08;13.79
37792;BME280;29527;55.766;37.570;2023-05-02T04:57:33;100585.16;;;31.42;13.08
37792;BME280;29527;55.766;37.570;2023-05-02T04:59:59;100589.59;;;32.13;13.22
37792;BME280;29527;55.766;37.570;2023-05-02T05:02:24;100586.03;;;32.64;12.51
37792;BME280;29527;55.766;37.570;2023-05-02T05:04:51;100592.13;;;33.00;12.22
37792;BME280;29527;55.766;37.570;2023-05-02T05:07:16;100570.66;;;33.13;11.95
37792;BME280;29527;55.766;37.570;2023-05-02T05:09:41;100600.50;;;33.45;11.50
37792;BME280;29527;55.766;37.570;2023-05-02T05:12:07;100592.00;;;34.01;11.33
37792;BME280;29527;55.766;37.570;2023-05-02T05:14:33;100586.63;;;34.49;10.81
37792;BME280;29527;55.766;37.570;2023-05-02T05:16:59;100586.16;;;35.06;10.39
37792;BME280;29527;55.766;37.570;2023-05-02T05:19:24;100592.22;;;35.46;10.14
37792;BME280;29527;55.766;37.570;2023-05-02T05:21:50;100596.25;;;35.91;9.31
37792;BME280;29527;55.766;37.570;2023-05-02T05:24:16;100572.09;;;36.08;9.07
37792;BME280;29527;55.766;37.570;2023-05-02T05:26:41;100595.81;;;36.52;9.17
37792;BME280;29527;55.766;37.570;2023-05-02T05:29:07;100593.53;;;36.74;8.89
37792;BME280;29527;55.766;37.570;2023-05-02T05:31:33;100595.72;;;37.03;9.06
37792;BME280;29527;55.766;37.570;2023-05-02T05:33:58;100589.69;;;37.57;8.16
37792;BME280;29527;55.766;37.570;2023-05-02T05:36:25;100599.53;;;37.89;8.27
37792;BME280;29527;55.766;37.570;2023-05-02T05:38:52;100588.28;;;38.39;7.74
37792;BME280;29527;55.766;37.570;2023-05-02T05:41:18;100604.16;;;38.79;6.82
37792;BME280;29527;55.766;37.570;2023-05-02T05:43:43;100592.88;;;39.13;6.83
37792;BME280;29527;55.766;37.570;2023-05-02T05:46:09;100587.63;;;39.74;6.90
37792;BME280;29527;55.766;37.570;2023-05-02T05:48:35;100590.50;;;40.27;6.75
37792;BME280;29527;55.766;37.570;2023-05-02T05:51:04;100597.59;;;40.71;6.57
37792;BME280;29527;55.766;37.570;2023-05-02T05:53:30;100590.59;;;40.55;6.48
37792;BME280;29527;55.766;37.570;2023-05-02T05:55:56;100586.59;;;40.89;5.86
37792;BME280;29527;55.766;37.570;2023-05-02T05:58:22;100584.56;;;41.23;5.56
37792;BME280;29527;55.766;37.570;2023-05-02T06:00:47;100587.81;;;41.67;5.70
37792;BME280;29527;55.766;37.570;2023-05-02T06:03:13;100584.09;;;41.94;5.20
37792;BME280;29527;55.766;37.570;2023-05-02T06:05:39;100584.84;;;42.23;4.90
37792;BME280;29527;55.766;37.570;2023-05-02T06:08:05;100589.84;;;42.49;4.73
37792;BME280;29527;55.766;37.570;2023-05-02T06:10:31;100592.22;;;42.64;4.78
37792;BME280;29527;55.766;37.570;2023-05-02T06:12:56;100588.94;;;43.02;4.39
37792;BME280;29527;55.766;37.570;2023-05-02T06:15:22;100589.34;;;43.27;4.36
37792;BME280;29527;55.766;37.570;2023-05-02T06:17:50;100594.03;;;43.58;4.25
37792;BME280;29527;55.766;37.570;2023-05-02T06:20:15;100587.13;;;43.73;3.74
37792;BME280;29527;55.766;37.570;2023-05-02T06:22:41;100581.47;;;43.91;3.44
37792;BME280;29527;55.766;37.570;2023-05-02T06:25:07;100585.78;;;44.06;3.07
37792;BME280;29527;55.766;37.570;2023-05-02T06:27:33;100585.09;;;44.09;3.20
37792;BME280;29527;55.766;37.570;2023-05-02T06:29:59;100576.81;;;44.22;3.20
37792;BME280;29527;55.766;37.570;2023-05-02T06:32:24;100575.44;;;44.45;2.79
37792;BME280;29527;55.766;37.570;2023-05-02T06:34:54;100587.28;;;44.78;3.35
37792;BME280;29527;55.766;37.570;2023-05-02T06:37:19;100588.22;;;44.99;3.10
37792;BME280;29527;55.766;37.570;2023-05-02T06:39:45;100581.63;;;45.16;3.16
37792;BME280;29527;55.766;37.570;2023-05-02T06:42:10;100587.09;;;45.52;2.87
37792;BME280;29527;55.766;37.570;2023-05-02T06:44:36;100583.81;;;45.50;2.95
37792;BME280;29527;55.766;37.570;2023-05-02T06:47:03;100595.22;;;45.53;2.96
37792;BME280;29527;55.766;37.570;2023-05-02T06:49:30;100584.41;;;45.55;2.76
37792;BME280;29527;55.766;37.570;2023-05-02T06:51:55;100589.78;;;45.48;2.53
37792;BME280;29527;55.766;37.570;2023-05-02T06:54:21;100565.28;;;45.52;2.55
37792;BME280;29527;55.766;37.570;2023-05-02T06:56:46;100573.75;;;45.82;2.86
37792;BME280;29527;55.766;37.570;2023-05-02T06:59:12;100586.69;;;46.05;2.16
37792;BME280;29527;55.766;37.570;2023-05-02T07:01:37;100592.94;;;45.77;2.76
37792;BME280;29527;55.766;37.570;2023-05-02T07:04:03;100587.59;;;45.75;2.72
37792;BME280;29527;55.766;37.570;2023-05-02T07:06:30;100585.25;;;45.98;2.46
37792;BME280;29527;55.766;37.570;2023-05-02T07:08:56;100585.84;;;46.25;2.39
37792;BME280;29527;55.766;37.570;2023-05-02T07:11:22;100599.53;;;46.36;2.09
37792;BME280;29527;55.766;37.570;2023-05-02T07:13:49;100605.28;;;46.61;2.27
37792;BME280;29527;55.766;37.570;2023-05-02T07:16:14;100591.19;;;46.98;1.92
37792;BME280;29527;55.766;37.570;2023-05-02T07:18:41;100595.75;;;47.03;1.88
37792;BME280;29527;55.766;37.570;2023-05-02T07:21:07;100587.94;;;46.62;1.97
37792;BME280;29527;55.766;37.570;2023-05-02T07:23:33;100590.94;;;46.44;2.42
37792;BME280;29527;55.766;37.570;2023-05-02T07:25:59;100585.84;;;46.38;2.21
37792;BME280;29527;55.766;37.570;2023-05-02T07:28:24;100585.44;;;46.61;1.68
37792;BME280;29527;55.766;37.570;2023-05-02T07:30:50;100588.78;;;47.12;1.90
37792;BME280;29527;55.766;37.570;2023-05-02T07:33:15;100594.31;;;47.58;1.95
37792;BME280;29527;55.766;37.570;2023-05-02T07:35:42;100580.72;;;47.93;1.63
37792;BME280;29527;55.766;37.570;2023-05-02T07:38:08;100579.88;;;48.21;1.39
37792;BME280;29527;55.766;37.570;2023-05-02T07:40:33;100577.22;;;47.83;1.53
37792;BME280;29527;55.766;37.570;2023-05-02T07:43:02;100581.59;;;47.81;0.75
37792;BME280;29527;55.766;37.570;2023-05-02T07:45:28;100578.63;;;46.28;2.23
37792;BME280;29527;55.766;37.570;2023-05-02T07:47:53;100578.50;;;45.91;2.34
37792;BME280;29527;55.766;37.570;2023-05-02T07:50:19;100575.09;;;45.97;2.65
37792;BME280;29527;55.766;37.570;2023-05-02T07:52:44;100575.59;;;45.27;2.51
37792;BME280;29527;55.766;37.570;2023-05-02T07:55:10;100574.53;;;44.71;2.86
37792;BME280;29527;55.766;37.570;2023-05-02T07:57:36;100573.50;;;44.02;2.81
37792;BME280;29527;55.766;37.570;2023-05-02T08:00:02;100561.44;;;42.99;2.91
37792;BME280;29527;55.766;37.570;2023-05-02T08:02:30;100568.47;;;42.48;3.65
37792;BME280;29527;55.766;37.570;2023-05-02T08:04:56;100560.63;;;41.76;3.56
37792;BME280;29527;55.766;37.570;2023-05-02T08:07:21;100558.44;;;40.14;3.83
37792;BME280;29527;55.766;37.570;2023-05-02T08:09:47;100559.31;;;37.34;5.06
37792;BME280;29527;55.766;37.570;2023-05-02T08:12:12;100554.25;;;34.05;6.99
37792;BME280;29527;55.766;37.570;2023-05-02T08:14:38;100556.81;;;31.11;8.63
37792;BME280;29527;55.766;37.570;2023-05-02T08:17:03;100559.00;;;28.64;10.16
37792;BME280;29527;55.766;37.570;2023-05-02T08:19:29;100565.19;;;26.57;12.21
37792;BME280;29527;55.766;37.570;2023-05-02T08:21:54;100573.16;;;24.50;13.52
37792;BME280;29527;55.766;37.570;2023-05-02T08:24:20;100566.50;;;22.83;15.16
37792;BME280;29527;55.766;37.570;2023-05-02T08:26:46;100548.75;;;21.47;16.50
37792;BME280;29527;55.766;37.570;2023-05-02T08:29:11;100571.63;;;20.40;17.44
37792;BME280;29527;55.766;37.570;2023-05-02T08:31:39;100563.28;;;19.48;17.62
37792;BME280;29527;55.766;37.570;2023-05-02T08:34:05;100563.38;;;18.77;18.47
37792;BME280;29527;55.766;37.570;2023-05-02T08:36:31;100565.88;;;18.08;18.91
37792;BME280;29527;55.766;37.570;2023-05-02T08:38:56;100566.59;;;17.64;19.85
37792;BME280;29527;55.766;37.570;2023-05-02T08:41:22;100564.56;;;17.20;19.89
37792;BME280;29527;55.766;37.570;2023-05-02T08:43:48;100562.19;;;16.97;20.90
37792;BME280;29527;55.766;37.570;2023-05-02T08:46:15;100566.50;;;16.90;21.24
37792;BME280;29527;55.766;37.570;2023-05-02T08:48:44;100570.47;;;16.86;20.70
37792;BME280;29527;55.766;37.570;2023-05-02T08:51:14;100561.63;;;16.84;21.41
37792;BME280;29527;55.766;37.570;2023-05-02T08:53:40;100563.06;;;16.88;21.34
37792;BME280;29527;55.766;37.570;2023-05-02T08:56:07;100566.22;;;16.83;20.64
37792;BME280;29527;55.766;37.570;2023-05-02T08:58:37;100567.06;;;16.84;21.09
37792;BME280;29527;55.766;37.570;2023-05-02T09:01:18;100563.69;;;16.62;21.10
37792;BME280;29527;55.766;37.570;2023-05-02T09:03:46;100564.69;;;16.61;21.59
37792;BME280;29527;55.766;37.570;2023-05-02T09:06:15;100556.56;;;16.61;21.17
37792;BME280;29527;55.766;37.570;2023-05-02T09:08:43;100566.25;;;16.63;21.38
37792;BME280;29527;55.766;37.570;2023-05-02T09:11:10;100558.03;;;16.55;21.58
37792;BME280;29527;55.766;37.570;2023-05-02T09:13:36;100552.75;;;16.54;21.83
37792;BME280;29527;55.766;37.570;2023-05-02T09:18:37;100553.44;;;16.65;21.77
37792;BME280;29527;55.766;37.570;2023-05-02T09:21:17;100554.84;;;16.70;22.21
37792;BME280;29527;55.766;37.570;2023-05-02T09:23:45;100557.44;;;16.71;21.84
37792;BME280;29527;55.766;37.570;2023-05-02T09:26:18;100553.72;;;16.72;22.08
37792;BME280;29527;55.766;37.570;2023-05-02T09:31:22;100549.75;;;16.67;21.98
37792;BME280;29527;55.766;37.570;2023-05-02T09:33:51;100547.78;;;16.39;21.91
37792;BME280;29527;55.766;37.570;2023-05-02T09:36:19;100546.38;;;16.35;22.43
37792;BME280;29527;55.766;37.570;2023-05-02T09:38:47;100534.56;;;16.36;21.86
37792;BME280;29527;55.766;37.570;2023-05-02T09:41:13;100542.97;;;16.43;21.64
37792;BME280;29527;55.766;37.570;2023-05-02T09:43:40;100544.22;;;16.48;21.98
37792;BME280;29527;55.766;37.570;2023-05-02T09:46:10;100542.81;;;16.54;21.84
37792;BME280;29527;55.766;37.570;2023-05-02T09:48:55;100537.66;;;16.61;21.45
37792;BME280;29527;55.766;37.570;2023-05-02T09:51:22;100517.09;;;16.40;21.61
37792;BME280;29527;55.766;37.570;2023-05-02T09:53:48;100520.91;;;16.47;22.05
37792;BME280;29527;55.766;37.570;2023-05-02T09:56:14;100525.16;;;16.50;22.58
37792;BME280;29527;55.766;37.570;2023-05-02T09:58:40;100518.19;;;16.57;21.60
37792;BME280;29527;55.766;37.570;2023-05-02T10:01:06;100516.47;;;16.66;20.85
37792;BME280;29527;55.766;37.570;2023-05-02T10:03:36;100515.00;;;16.72;21.51
37792;BME280;29527;55.766;37.570;2023-05-02T10:06:04;100515.88;;;16.72;21.41
37792;BME280;29527;55.766;37.570;2023-05-02T10:08:32;100513.56;;;16.77;21.09
37792;BME280;29527;55.766;37.570;2023-05-02T10:10:58;100519.66;;;16.79;21.27
37792;BME280;29527;55.766;37.570;2023-05-02T10:13:26;100520.06;;;16.85;22.04
37792;BME280;29527;55.766;37.570;2023-05-02T10:16:00;100515.25;;;16.78;21.09
37792;BME280;29527;55.766;37.570;2023-05-02T10:18:57;100504.28;;;16.90;21.08
37792;BME280;29527;55.766;37.570;2023-05-02T10:21:27;100509.25;;;16.85;21.81
37792;BME280;29527;55.766;37.570;2023-05-02T10:23:52;100494.94;;;16.74;20.98
37792;BME280;29527;55.766;37.570;2023-05-02T10:26:18;100504.06;;;16.63;21.18
37792;BME280;29527;55.766;37.570;2023-05-02T10:28:50;100505.22;;;16.61;21.79
37792;BME280;29527;55.766;37.570;2023-05-02T10:31:17;100496.09;;;16.62;21.91
37792;BME280;29527;55.766;37.570;2023-05-02T10:33:43;100499.97;;;16.59;21.69
37792;BME280;29527;55.766;37.570;2023-05-02T10:36:10;100505.66;;;16.66;21.17
37792;BME280;29527;55.766;37.570;2023-05-02T10:38:37;100495.69;;;16.57;21.11
37792;BME280;29527;55.766;37.570;2023-05-02T10:41:15;100493.97;;;16.65;21.04
37792;BME280;29527;55.766;37.570;2023-05-02T10:43:46;100498.41;;;16.57;20.99
37792;BME280;29527;55.766;37.570;2023-05-02T10:46:30;100494.28;;;16.53;21.60
37792;BME280;29527;55.766;37.570;2023-05-02T10:51:31;100503.63;;;16.11;21.50
37792;BME280;29527;55.766;37.570;2023-05-02T10:57:04;100496.63;;;16.28;21.44
37792;BME280;29527;55.766;37.570;2023-05-02T10:59:39;100486.53;;;16.20;21.43
37792;BME280;29527;55.766;37.570;2023-05-02T11:05:00;100488.81;;;16.25;21.26
37792;BME280;29527;55.766;37.570;2023-05-02T11:07:27;100479.84;;;16.14;21.27
37792;BME280;29527;55.766;37.570;2023-05-02T11:18:06;100469.78;;;15.97;22.38
37792;BME280;29527;55.766;37.570;2023-05-02T11:20:33;100469.75;;;15.77;22.39
37792;BME280;29527;55.766;37.570;2023-05-02T11:23:21;100470.91;;;15.94;22.50
37792;BME280;29527;55.766;37.570;2023-05-02T11:25:56;100466.50;;;15.93;22.91
37792;BME280;29527;55.766;37.570;2023-05-02T11:31:37;100460.53;;;15.99;22.75
37792;BME280;29527;55.766;37.570;2023-05-02T11:34:01;100430.28;;;15.96;22.75
37792;BME280;29527;55.766;37.570;2023-05-02T11:36:31;100454.81;;;16.22;22.13
37792;BME280;29527;55.766;37.570;2023-05-02T11:39:02;100454.69;;;16.24;22.38
37792;BME280;29527;55.766;37.570;2023-05-02T11:41:43;100428.66;;;16.23;21.96
37792;BME280;29527;55.766;37.570;2023-05-02T11:44:09;100446.00;;;16.20;22.39
37792;BME280;29527;55.766;37.570;2023-05-02T11:46:38;100447.16;;;16.17;22.33
37792;BME280;29527;55.766;37.570;2023-05-02T11:49:06;100440.63;;;16.00;22.06
37792;BME280;29527;55.766;37.570;2023-05-02T11:51:38;100438.69;;;15.92;22.41
37792;BME280;29527;55.766;37.570;2023-05-02T11:54:03;100429.56;;;15.93;22.31
37792;BME280;29527;55.766;37.570;2023-05-02T11:56:32;100441.78;;;15.98;22.10
37792;BME280;29527;55.766;37.570;2023-05-02T11:59:02;100441.78;;;16.07;22.45
37792;BME280;29527;55.766;37.570;2023-05-02T12:01:28;100435.66;;;16.05;23.04
37792;BME280;29527;55.766;37.570;2023-05-02T12:04:01;100429.25;;;16.16;22.02
37792;BME280;29527;55.766;37.570;2023-05-02T12:06:27;100414.50;;;16.01;21.98
37792;BME280;29527;55.766;37.570;2023-05-02T12:09:05;100423.56;;;16.10;22.19
37792;BME280;29527;55.766;37.570;2023-05-02T12:11:32;100418.91;;;16.02;22.07
37792;BME280;29527;55.766;37.570;2023-05-02T12:13:57;100407.09;;;16.03;22.59
37792;BME280;29527;55.766;37.570;2023-05-02T12:16:23;100411.91;;;16.09;22.15
37792;BME280;29527;55.766;37.570;2023-05-02T12:18:49;100382.97;;;15.91;22.13
37792;BME280;29527;55.766;37.570;2023-05-02T12:21:16;100402.53;;;16.03;22.00
37792;BME280;29527;55.766;37.570;2023-05-02T12:23:42;100398.28;;;16.01;22.08
37792;BME280;29527;55.766;37.570;2023-05-02T12:26:22;100397.69;;;16.07;21.96
37792;BME280;29527;55.766;37.570;2023-05-02T12:28:54;100403.97;;;16.07;22.29
37792;BME280;29527;55.766;37.570;2023-05-02T12:31:20;100401.09;;;16.09;22.62
37792;BME280;29527;55.766;37.570;2023-05-02T12:33:46;100398.25;;;16.11;21.52
37792;BME280;29527;55.766;37.570;2023-05-02T12:36:17;100407.38;;;16.10;21.90
37792;BME280;29527;55.766;37.570;2023-05-02T12:38:48;100403.38;;;16.04;22.27
37792;BME280;29527;55.766;37.570;2023-05-02T12:41:18;100396.88;;;15.97;22.43
37792;BME280;29527;55.766;37.570;2023-05-02T12:43:48;100364.31;;;15.88;22.14
37792;BME280;29527;55.766;37.570;2023-05-02T12:46:15;100390.88;;;16.03;22.48
37792;BME280;29527;55.766;37.570;2023-05-02T12:48:41;100383.78;;;16.02;22.48
37792;BME280;29527;55.766;37.570;2023-05-02T12:51:19;100364.00;;;16.01;22.55
37792;BME280;29527;55.766;37.570;2023-05-02T12:53:45;100378.06;;;16.15;22.87
37792;BME280;29527;55.766;37.570;2023-05-02T12:56:12;100385.28;;;16.14;22.73
37792;BME280;29527;55.766;37.570;2023-05-02T12:58:47;100361.16;;;16.13;22.36
37792;BME280;29527;55.766;37.570;2023-05-02T13:01:13;100375.50;;;16.13;22.02
37792;BME280;29527;55.766;37.570;2023-05-02T13:03:40;100383.88;;;16.10;22.49
37792;BME280;29527;55.766;37.570;2023-05-02T13:06:06;100348.25;;;15.87;22.61
37792;BME280;29527;55.766;37.570;2023-05-02T13:08:33;100380.09;;;16.03;22.46
37792;BME280;29527;55.766;37.570;2023-05-02T13:11:00;100381.81;;;15.94;22.55
37792;BME280;29527;55.766;37.570;2023-05-02T13:13:25;100374.13;;;15.89;22.80
37792;BME280;29527;55.766;37.570;2023-05-02T13:15:51;100376.00;;;15.89;22.85
37792;BME280;29527;55.766;37.570;2023-05-02T13:18:16;100369.00;;;15.96;23.02
37792;BME280;29527;55.766;37.570;2023-05-02T13:20:42;100349.97;;;15.78;22.96
37792;BME280;29527;55.766;37.570;2023-05-02T13:23:07;100371.00;;;15.94;22.18
37792;BME280;29527;55.766;37.570;2023-05-02T13:25:33;100373.00;;;15.92;22.36
37792;BME280;29527;55.766;37.570;2023-05-02T13:27:58;100363.59;;;15.86;22.41
37792;BME280;29527;55.766;37.570;2023-05-02T13:30:24;100353.50;;;15.78;22.77